sensor_id;sensor_type;location;lat;lon;timestamp;temperature;humidity
64705;DHT22;51131;52.298;13.686;2022-08-21T00:01:39;22.70;83.70
64705;DHT22;51131;52.298;13.686;2022-08-21T00:04:06;23.30;84.30
64705;DHT22;51131;52.298;13.686;2022-08-21T00:06:33;22.40;83.50
64705;DHT22;51131;52.298;13.686;2022-08-21T00:09:01;22.40;83.40
64705;DHT22;51131;52.298;13.686;2022-08-21T00:11:33;22.40;83.40
64705;DHT22;51131;52.298;13.686;2022-08-21T00:14:02;22.40;83.40
64705;DHT22;51131;52.298;13.686;2022-08-21T00:16:29;22.40;83.50
64705;DHT22;51131;52.298;13.686;2022-08-21T00:18:56;22.40;83.40
64705;DHT22;51131;52.298;13.686;2022-08-21T00:21:23;22.40;83.40
64705;DHT22;51131;52.298;13.686;2022-08-21T00:23:51;22.40;83.50
64705;DHT22;51131;52.298;13.686;2022-08-21T00:26:18;22.30;83.40
64705;DHT22;51131;52.298;13.686;2022-08-21T00:28:45;22.30;83.50
64705;DHT22;51131;52.298;13.686;2022-08-21T00:31:12;22.30;83.50
64705;DHT22;51131;52.298;13.686;2022-08-21T00:33:39;22.30;83.50
64705;DHT22;51131;52.298;13.686;2022-08-21T00:36:06;22.30;83.50
64705;DHT22;51131;52.298;13.686;2022-08-21T00:38:41;22.30;83.50
64705;DHT22;51131;52.298;13.686;2022-08-21T00:41:08;22.30;83.60
64705;DHT22;51131;52.298;13.686;2022-08-21T00:43:55;22.30;84.20
64705;DHT22;51131;52.298;13.686;2022-08-21T00:46:22;22.30;83.60
64705;DHT22;51131;52.298;13.686;2022-08-21T00:48:54;22.30;83.50
64705;DHT22;51131;52.298;13.686;2022-08-21T00:51:25;22.30;83.60
64705;DHT22;51131;52.298;13.686;2022-08-21T00:53:56;22.30;83.60
64705;DHT22;51131;52.298;13.686;2022-08-21T00:56:24;23.30;84.60
64705;DHT22;51131;52.298;13.686;2022-08-21T00:58:52;22.30;83.60
64705;DHT22;51131;52.298;13.686;2022-08-21T01:01:20;22.30;83.70
64705;DHT22;51131;52.298;13.686;2022-08-21T01:03:48;22.30;83.60
64705;DHT22;51131;52.298;13.686;2022-08-21T01:06:15;22.40;83.70
64705;DHT22;51131;52.298;13.686;2022-08-21T01:08:42;22.50;83.80
64705;DHT22;51131;52.298;13.686;2022-08-21T01:11:13;22.30;83.70
64705;DHT22;51131;52.298;13.686;2022-08-21T01:13:40;22.30;83.60
64705;DHT22;51131;52.298;13.686;2022-08-21T01:16:13;22.30;83.70
64705;DHT22;51131;52.298;13.686;2022-08-21T01:18:42;22.30;83.70
64705;DHT22;51131;52.298;13.686;2022-08-21T01:21:15;22.30;83.70
64705;DHT22;51131;52.298;13.686;2022-08-21T01:23:45;22.30;83.70
64705;DHT22;51131;52.298;13.686;2022-08-21T01:26:13;22.30;83.70
64705;DHT22;51131;52.298;13.686;2022-08-21T01:29:05;22.30;83.70
64705;DHT22;51131;52.298;13.686;2022-08-21T01:31:29;22.30;83.80
64705;DHT22;51131;52.298;13.686;2022-08-21T01:33:58;22.30;84.40
64705;DHT22;51131;52.298;13.686;2022-08-21T01:36:25;22.30;83.70
64705;DHT22;51131;52.298;13.686;2022-08-21T01:38:52;22.30;83.70
64705;DHT22;51131;52.298;13.686;2022-08-21T01:41:19;23.30;84.70
64705;DHT22;51131;52.298;13.686;2022-08-21T01:43:46;22.30;83.60
64705;DHT22;51131;52.298;13.686;2022-08-21T01:46:13;22.30;83.50
64705;DHT22;51131;52.298;13.686;2022-08-21T01:48:40;22.60;83.70
64705;DHT22;51131;52.298;13.686;2022-08-21T01:51:07;22.30;83.30
64705;DHT22;51131;52.298;13.686;2022-08-21T01:53:34;22.30;83.20
64705;DHT22;51131;52.298;13.686;2022-08-21T01:56:04;22.80;83.60
64705;DHT22;51131;52.298;13.686;2022-08-21T01:58:38;22.40;83.20
64705;DHT22;51131;52.298;13.686;2022-08-21T02:01:05;22.40;83.10
64705;DHT22;51131;52.298;13.686;2022-08-21T02:03:32;22.40;83.70
64705;DHT22;51131;52.298;13.686;2022-08-21T02:06:02;22.40;83.10
64705;DHT22;51131;52.298;13.686;2022-08-21T02:08:29;22.40;83.00
64705;DHT22;51131;52.298;13.686;2022-08-21T02:10:57;22.30;82.90
64705;DHT22;51131;52.298;13.686;2022-08-21T02:13:23;22.40;82.90
64705;DHT22;51131;52.298;13.686;2022-08-21T02:15:50;22.40;83.00
64705;DHT22;51131;52.298;13.686;2022-08-21T02:18:17;22.40;82.90
64705;DHT22;51131;52.298;13.686;2022-08-21T02:20:45;22.40;82.90
64705;DHT22;51131;52.298;13.686;2022-08-21T02:23:13;22.40;82.90
64705;DHT22;51131;52.298;13.686;2022-08-21T02:25:40;22.40;82.90
64705;DHT22;51131;52.298;13.686;2022-08-21T02:28:08;22.50;82.90
64705;DHT22;51131;52.298;13.686;2022-08-21T02:30:38;22.40;82.90
64705;DHT22;51131;52.298;13.686;2022-08-21T02:33:05;22.40;82.80
64705;DHT22;51131;52.298;13.686;2022-08-21T02:35:32;22.50;82.90
64705;DHT22;51131;52.298;13.686;2022-08-21T02:38:00;22.40;82.80
64705;DHT22;51131;52.298;13.686;2022-08-21T02:40:29;22.40;82.80
64705;DHT22;51131;52.298;13.686;2022-08-21T02:42:57;22.40;82.80
64705;DHT22;51131;52.298;13.686;2022-08-21T02:45:24;22.40;82.80
64705;DHT22;51131;52.298;13.686;2022-08-21T02:47:53;22.40;82.80
64705;DHT22;51131;52.298;13.686;2022-08-21T02:50:21;22.90;83.30
64705;DHT22;51131;52.298;13.686;2022-08-21T02:52:51;22.50;82.90
64705;DHT22;51131;52.298;13.686;2022-08-21T02:55:25;22.40;82.70
64705;DHT22;51131;52.298;13.686;2022-08-21T02:57:53;22.40;82.70
64705;DHT22;51131;52.298;13.686;2022-08-21T03:00:21;22.40;82.80
64705;DHT22;51131;52.298;13.686;2022-08-21T03:02:48;22.40;82.70
64705;DHT22;51131;52.298;13.686;2022-08-21T03:05:15;22.40;82.70
64705;DHT22;51131;52.298;13.686;2022-08-21T03:07:42;22.40;82.70
64705;DHT22;51131;52.298;13.686;2022-08-21T03:10:10;22.40;82.70
64705;DHT22;51131;52.298;13.686;2022-08-21T03:12:36;22.40;82.70
64705;DHT22;51131;52.298;13.686;2022-08-21T03:15:05;22.40;82.70
64705;DHT22;51131;52.298;13.686;2022-08-21T03:17:33;22.40;82.70
64705;DHT22;51131;52.298;13.686;2022-08-21T03:20:00;22.60;82.90
64705;DHT22;51131;52.298;13.686;2022-08-21T03:22:27;22.80;83.10
64705;DHT22;51131;52.298;13.686;2022-08-21T03:24:56;22.40;82.60
64705;DHT22;51131;52.298;13.686;2022-08-21T03:27:24;22.40;82.60
64705;DHT22;51131;52.298;13.686;2022-08-21T03:29:50;22.40;82.60
64705;DHT22;51131;52.298;13.686;2022-08-21T03:32:17;22.40;82.60
64705;DHT22;51131;52.298;13.686;2022-08-21T03:34:44;23.20;83.30
64705;DHT22;51131;52.298;13.686;2022-08-21T03:37:11;23.30;83.40
64705;DHT22;51131;52.298;13.686;2022-08-21T03:39:38;22.30;82.50
64705;DHT22;51131;52.298;13.686;2022-08-21T03:42:05;22.40;82.50
64705;DHT22;51131;52.298;13.686;2022-08-21T03:44:32;22.40;82.50
64705;DHT22;51131;52.298;13.686;2022-08-21T03:46:59;22.40;82.50
64705;DHT22;51131;52.298;13.686;2022-08-21T03:49:26;22.40;82.50
64705;DHT22;51131;52.298;13.686;2022-08-21T03:51:53;22.40;82.50
64705;DHT22;51131;52.298;13.686;2022-08-21T03:54:25;22.40;82.40
64705;DHT22;51131;52.298;13.686;2022-08-21T03:56:54;22.40;82.40
64705;DHT22;51131;52.298;13.686;2022-08-21T03:59:21;23.60;83.60
64705;DHT22;51131;52.298;13.686;2022-08-21T04:01:55;22.30;82.30
64705;DHT22;51131;52.298;13.686;2022-08-21T04:04:22;22.30;82.30
64705;DHT22;51131;52.298;13.686;2022-08-21T04:06:49;22.40;82.40
64705;DHT22;51131;52.298;13.686;2022-08-21T04:09:16;22.40;82.40
64705;DHT22;51131;52.298;13.686;2022-08-21T04:11:43;22.30;82.30
64705;DHT22;51131;52.298;13.686;2022-08-21T04:14:11;22.30;82.30
64705;DHT22;51131;52.298;13.686;2022-08-21T04:16:38;22.30;82.30
64705;DHT22;51131;52.298;13.686;2022-08-21T04:19:05;22.30;82.30
64705;DHT22;51131;52.298;13.686;2022-08-21T04:21:32;22.70;83.30
64705;DHT22;51131;52.298;13.686;2022-08-21T04:23:59;22.30;82.20
64705;DHT22;51131;52.298;13.686;2022-08-21T04:26:26;22.30;82.20
64705;DHT22;51131;52.298;13.686;2022-08-21T04:28:52;22.30;82.10
64705;DHT22;51131;52.298;13.686;2022-08-21T04:31:19;22.30;82.20
64705;DHT22;51131;52.298;13.686;2022-08-21T04:33:46;22.30;82.10
64705;DHT22;51131;52.298;13.686;2022-08-21T04:36:12;22.30;82.10
64705;DHT22;51131;52.298;13.686;2022-08-21T04:38:39;22.30;82.10
64705;DHT22;51131;52.298;13.686;2022-08-21T04:41:10;22.80;82.60
64705;DHT22;51131;52.298;13.686;2022-08-21T04:43:38;22.30;82.10
64705;DHT22;51131;52.298;13.686;2022-08-21T04:46:05;22.30;82.10
64705;DHT22;51131;52.298;13.686;2022-08-21T04:48:32;22.30;82.00
64705;DHT22;51131;52.298;13.686;2022-08-21T04:51:06;22.30;82.00
64705;DHT22;51131;52.298;13.686;2022-08-21T04:56:05;22.30;82.00
64705;DHT22;51131;52.298;13.686;2022-08-21T04:58:34;22.30;82.00
64705;DHT22;51131;52.298;13.686;2022-08-21T05:01:03;22.30;82.00
64705;DHT22;51131;52.298;13.686;2022-08-21T05:03:32;22.30;81.90
64705;DHT22;51131;52.298;13.686;2022-08-21T05:05:59;22.30;81.90
64705;DHT22;51131;52.298;13.686;2022-08-21T05:08:26;22.30;81.90
64705;DHT22;51131;52.298;13.686;2022-08-21T05:10:54;22.30;81.90
64705;DHT22;51131;52.298;13.686;2022-08-21T05:13:26;22.30;81.90
64705;DHT22;51131;52.298;13.686;2022-08-21T05:15:53;22.20;81.90
64705;DHT22;51131;52.298;13.686;2022-08-21T05:18:19;22.30;82.00
64705;DHT22;51131;52.298;13.686;2022-08-21T05:20:46;22.30;82.00
64705;DHT22;51131;52.298;13.686;2022-08-21T05:23:13;22.30;82.00
64705;DHT22;51131;52.298;13.686;2022-08-21T05:25:40;22.30;82.00
64705;DHT22;51131;52.298;13.686;2022-08-21T05:28:07;22.20;81.90
64705;DHT22;51131;52.298;13.686;2022-08-21T05:30:34;22.20;81.90
64705;DHT22;51131;52.298;13.686;2022-08-21T05:33:02;22.20;81.90
64705;DHT22;51131;52.298;13.686;2022-08-21T05:35:30;22.20;81.90
64705;DHT22;51131;52.298;13.686;2022-08-21T05:37:57;22.20;81.80
64705;DHT22;51131;52.298;13.686;2022-08-21T05:40:24;22.20;81.90
64705;DHT22;51131;52.298;13.686;2022-08-21T05:42:51;22.20;81.80
64705;DHT22;51131;52.298;13.686;2022-08-21T05:45:21;22.20;81.90
64705;DHT22;51131;52.298;13.686;2022-08-21T05:48:09;22.20;81.80
64705;DHT22;51131;52.298;13.686;2022-08-21T05:50:36;22.20;81.90
64705;DHT22;51131;52.298;13.686;2022-08-21T05:53:05;22.20;82.00
64705;DHT22;51131;52.298;13.686;2022-08-21T05:55:33;22.20;81.90
64705;DHT22;51131;52.298;13.686;2022-08-21T05:58:00;22.20;81.90
64705;DHT22;51131;52.298;13.686;2022-08-21T06:00:27;22.30;81.90
64705;DHT22;51131;52.298;13.686;2022-08-21T06:02:54;22.30;81.90
64705;DHT22;51131;52.298;13.686;2022-08-21T06:05:21;22.30;81.90
64705;DHT22;51131;52.298;13.686;2022-08-21T06:08:03;22.30;81.90
64705;DHT22;51131;52.298;13.686;2022-08-21T06:10:30;22.30;81.90
64705;DHT22;51131;52.298;13.686;2022-08-21T06:12:56;22.30;81.90
64705;DHT22;51131;52.298;13.686;2022-08-21T06:15:23;22.40;81.90
64705;DHT22;51131;52.298;13.686;2022-08-21T06:17:50;22.40;81.90
64705;DHT22;51131;52.298;13.686;2022-08-21T06:20:18;22.40;81.90
64705;DHT22;51131;52.298;13.686;2022-08-21T06:22:45;22.40;81.80
64705;DHT22;51131;52.298;13.686;2022-08-21T06:25:12;22.40;81.70
64705;DHT22;51131;52.298;13.686;2022-08-21T06:27:39;22.40;81.80
64705;DHT22;51131;52.298;13.686;2022-08-21T06:30:06;22.40;81.80
64705;DHT22;51131;52.298;13.686;2022-08-21T06:32:33;22.40;81.80
64705;DHT22;51131;52.298;13.686;2022-08-21T06:35:00;22.40;82.40
64705;DHT22;51131;52.298;13.686;2022-08-21T06:37:27;22.40;81.80
64705;DHT22;51131;52.298;13.686;2022-08-21T06:39:54;22.40;81.70
64705;DHT22;51131;52.298;13.686;2022-08-21T06:42:21;22.40;81.80
64705;DHT22;51131;52.298;13.686;2022-08-21T06:44:53;22.40;81.80
64705;DHT22;51131;52.298;13.686;2022-08-21T06:47:20;22.40;81.70
64705;DHT22;51131;52.298;13.686;2022-08-21T06:49:47;22.30;81.70
64705;DHT22;51131;52.298;13.686;2022-08-21T06:52:15;22.40;81.70
64705;DHT22;51131;52.298;13.686;2022-08-21T06:54:42;22.40;81.70
64705;DHT22;51131;52.298;13.686;2022-08-21T06:57:08;22.40;81.70
64705;DHT22;51131;52.298;13.686;2022-08-21T06:59:35;22.40;81.70
64705;DHT22;51131;52.298;13.686;2022-08-21T07:02:02;22.30;81.60
64705;DHT22;51131;52.298;13.686;2022-08-21T07:04:29;22.40;81.70
64705;DHT22;51131;52.298;13.686;2022-08-21T07:06:56;22.40;81.80
64705;DHT22;51131;52.298;13.686;2022-08-21T07:09:23;22.40;81.70
64705;DHT22;51131;52.298;13.686;2022-08-21T07:11:51;22.30;81.60
64705;DHT22;51131;52.298;13.686;2022-08-21T07:14:18;22.40;81.70
64705;DHT22;51131;52.298;13.686;2022-08-21T07:16:46;22.40;81.70
64705;DHT22;51131;52.298;13.686;2022-08-21T07:19:13;22.30;81.60
64705;DHT22;51131;52.298;13.686;2022-08-21T07:21:40;22.40;81.70
64705;DHT22;51131;52.298;13.686;2022-08-21T07:24:07;22.40;81.70
64705;DHT22;51131;52.298;13.686;2022-08-21T07:26:33;22.40;81.70
64705;DHT22;51131;52.298;13.686;2022-08-21T07:29:00;22.30;81.60
64705;DHT22;51131;52.298;13.686;2022-08-21T07:31:27;22.30;81.60
64705;DHT22;51131;52.298;13.686;2022-08-21T07:33:54;22.40;81.70
64705;DHT22;51131;52.298;13.686;2022-08-21T07:36:21;22.40;81.60
64705;DHT22;51131;52.298;13.686;2022-08-21T07:38:47;22.30;81.50
64705;DHT22;51131;52.298;13.686;2022-08-21T07:41:22;22.40;81.60
64705;DHT22;51131;52.298;13.686;2022-08-21T07:43:49;22.30;81.50
64705;DHT22;51131;52.298;13.686;2022-08-21T07:46:18;22.30;81.50
64705;DHT22;51131;52.298;13.686;2022-08-21T07:48:45;22.30;81.50
64705;DHT22;51131;52.298;13.686;2022-08-21T07:51:12;22.30;81.50
64705;DHT22;51131;52.298;13.686;2022-08-21T07:53:40;22.30;81.50
64705;DHT22;51131;52.298;13.686;2022-08-21T07:56:08;22.40;81.70
64705;DHT22;51131;52.298;13.686;2022-08-21T07:58:35;22.30;81.50
64705;DHT22;51131;52.298;13.686;2022-08-21T08:01:02;22.30;81.50
64705;DHT22;51131;52.298;13.686;2022-08-21T08:03:28;22.40;81.60
64705;DHT22;51131;52.298;13.686;2022-08-21T08:05:56;22.30;81.50
64705;DHT22;51131;52.298;13.686;2022-08-21T08:08:23;22.30;81.50
64705;DHT22;51131;52.298;13.686;2022-08-21T08:10:50;22.30;81.90
64705;DHT22;51131;52.298;13.686;2022-08-21T08:13:20;22.30;81.50
64705;DHT22;51131;52.298;13.686;2022-08-21T08:15:46;22.30;81.50
64705;DHT22;51131;52.298;13.686;2022-08-21T08:18:13;22.40;81.50
64705;DHT22;51131;52.298;13.686;2022-08-21T08:20:40;22.40;81.60
64705;DHT22;51131;52.298;13.686;2022-08-21T08:23:11;22.40;81.50
64705;DHT22;51131;52.298;13.686;2022-08-21T08:25:37;22.40;81.50
64705;DHT22;51131;52.298;13.686;2022-08-21T08:28:05;22.40;81.50
64705;DHT22;51131;52.298;13.686;2022-08-21T08:30:44;22.40;81.50
64705;DHT22;51131;52.298;13.686;2022-08-21T08:33:10;22.30;81.50
64705;DHT22;51131;52.298;13.686;2022-08-21T08:35:38;22.30;81.60
64705;DHT22;51131;52.298;13.686;2022-08-21T08:38:07;22.30;81.60
64705;DHT22;51131;52.298;13.686;2022-08-21T08:43:08;22.30;81.50
64705;DHT22;51131;52.298;13.686;2022-08-21T08:45:40;22.40;80.90
64705;DHT22;51131;52.298;13.686;2022-08-21T08:48:09;22.50;80.60
64705;DHT22;51131;52.298;13.686;2022-08-21T08:53:18;22.70;80.20
64705;DHT22;51131;52.298;13.686;2022-08-21T08:55:48;22.70;79.90
64705;DHT22;51131;52.298;13.686;2022-08-21T08:58:26;22.70;79.80
64705;DHT22;51131;52.298;13.686;2022-08-21T09:00:53;22.80;79.80
64705;DHT22;51131;52.298;13.686;2022-08-21T09:03:25;22.80;79.70
64705;DHT22;51131;52.298;13.686;2022-08-21T09:13:56;22.80;79.80
64705;DHT22;51131;52.298;13.686;2022-08-21T09:16:29;22.80;80.50
64705;DHT22;51131;52.298;13.686;2022-08-21T09:19:03;22.70;80.00
64705;DHT22;51131;52.298;13.686;2022-08-21T09:21:37;22.70;79.80
64705;DHT22;51131;52.298;13.686;2022-08-21T09:26:44;22.70;79.90
64705;DHT22;51131;52.298;13.686;2022-08-21T09:29:12;22.70;79.80
64705;DHT22;51131;52.298;13.686;2022-08-21T09:31:39;22.70;79.80
64705;DHT22;51131;52.298;13.686;2022-08-21T09:34:09;22.70;79.90
64705;DHT22;51131;52.298;13.686;2022-08-21T09:36:40;22.70;80.00
64705;DHT22;51131;52.298;13.686;2022-08-21T09:39:08;21.60;78.90
64705;DHT22;51131;52.298;13.686;2022-08-21T09:41:36;22.70;80.00
64705;DHT22;51131;52.298;13.686;2022-08-21T09:44:04;22.70;80.10
64705;DHT22;51131;52.298;13.686;2022-08-21T09:46:31;22.70;80.00
64705;DHT22;51131;52.298;13.686;2022-08-21T09:49:00;22.70;80.00
64705;DHT22;51131;52.298;13.686;2022-08-21T09:53:56;22.60;80.00
64705;DHT22;51131;52.298;13.686;2022-08-21T09:56:37;22.70;80.10
64705;DHT22;51131;52.298;13.686;2022-08-21T10:01:50;22.60;79.80
64705;DHT22;51131;52.298;13.686;2022-08-21T10:04:22;22.60;79.80
64705;DHT22;51131;52.298;13.686;2022-08-21T10:06:48;22.60;79.90
64705;DHT22;51131;52.298;13.686;2022-08-21T10:09:17;22.60;80.00
64705;DHT22;51131;52.298;13.686;2022-08-21T10:14:44;22.60;80.10
64705;DHT22;51131;52.298;13.686;2022-08-21T10:20:09;22.60;80.10
64705;DHT22;51131;52.298;13.686;2022-08-21T10:23:01;22.60;80.10
64705;DHT22;51131;52.298;13.686;2022-08-21T10:36:33;22.50;80.00
64705;DHT22;51131;52.298;13.686;2022-08-21T10:47:18;22.40;79.90
64705;DHT22;51131;52.298;13.686;2022-08-21T10:50:09;22.40;80.00
64705;DHT22;51131;52.298;13.686;2022-08-21T10:52:45;22.50;80.20
64705;DHT22;51131;52.298;13.686;2022-08-21T10:55:17;22.50;80.40
64705;DHT22;51131;52.298;13.686;2022-08-21T10:57:47;22.50;80.40
64705;DHT22;51131;52.298;13.686;2022-08-21T11:00:18;22.50;80.30
64705;DHT22;51131;52.298;13.686;2022-08-21T11:02:51;22.50;80.10
64705;DHT22;51131;52.298;13.686;2022-08-21T11:05:24;22.50;80.10
64705;DHT22;51131;52.298;13.686;2022-08-21T11:07:55;22.50;80.00
64705;DHT22;51131;52.298;13.686;2022-08-21T11:10:31;22.50;79.80
64705;DHT22;51131;52.298;13.686;2022-08-21T11:13:11;22.50;80.10
64705;DHT22;51131;52.298;13.686;2022-08-21T11:15:50;22.50;80.20
64705;DHT22;51131;52.298;13.686;2022-08-21T11:18:43;22.50;80.10
64705;DHT22;51131;52.298;13.686;2022-08-21T11:24:02;22.50;80.30
64705;DHT22;51131;52.298;13.686;2022-08-21T11:26:39;22.50;80.20
64705;DHT22;51131;52.298;13.686;2022-08-21T11:29:12;22.50;80.40
64705;DHT22;51131;52.298;13.686;2022-08-21T11:37:13;22.50;80.20
64705;DHT22;51131;52.298;13.686;2022-08-21T11:39:52;22.50;80.30
64705;DHT22;51131;52.298;13.686;2022-08-21T11:43:06;22.50;80.20
64705;DHT22;51131;52.298;13.686;2022-08-21T11:45:54;22.50;79.90
64705;DHT22;51131;52.298;13.686;2022-08-21T11:48:05;22.50;79.70
64705;DHT22;51131;52.298;13.686;2022-08-21T11:50:35;22.50;79.90
64705;DHT22;51131;52.298;13.686;2022-08-21T11:55:56;22.50;79.80
64705;DHT22;51131;52.298;13.686;2022-08-21T11:58:37;22.50;79.80
64705;DHT22;51131;52.298;13.686;2022-08-21T12:01:05;22.50;80.10
64705;DHT22;51131;52.298;13.686;2022-08-21T12:03:34;22.40;79.90
64705;DHT22;51131;52.298;13.686;2022-08-21T12:06:04;22.40;79.80
64705;DHT22;51131;52.298;13.686;2022-08-21T12:08:36;22.40;79.60
64705;DHT22;51131;52.298;13.686;2022-08-21T12:11:10;22.40;80.30
64705;DHT22;51131;52.298;13.686;2022-08-21T12:16:38;22.50;80.20
64705;DHT22;51131;52.298;13.686;2022-08-21T12:19:09;22.40;80.20
64705;DHT22;51131;52.298;13.686;2022-08-21T12:21:53;22.40;80.30
64705;DHT22;51131;52.298;13.686;2022-08-21T12:26:55;22.40;80.40
64705;DHT22;51131;52.298;13.686;2022-08-21T12:29:23;22.40;80.40
64705;DHT22;51131;52.298;13.686;2022-08-21T12:34:37;22.40;80.50
64705;DHT22;51131;52.298;13.686;2022-08-21T12:37:06;22.40;80.50
64705;DHT22;51131;52.298;13.686;2022-08-21T12:39:38;22.40;80.50
64705;DHT22;51131;52.298;13.686;2022-08-21T12:42:07;22.40;80.60
64705;DHT22;51131;52.298;13.686;2022-08-21T12:44:42;22.40;80.60
64705;DHT22;51131;52.298;13.686;2022-08-21T12:47:14;22.40;80.70
64705;DHT22;51131;52.298;13.686;2022-08-21T12:49:45;22.40;81.30
64705;DHT22;51131;52.298;13.686;2022-08-21T12:52:20;22.40;80.70
64705;DHT22;51131;52.298;13.686;2022-08-21T12:54:47;22.40;80.70
64705;DHT22;51131;52.298;13.686;2022-08-21T12:57:24;22.50;80.60
64705;DHT22;51131;52.298;13.686;2022-08-21T12:59:58;22.40;80.50
64705;DHT22;51131;52.298;13.686;2022-08-21T13:02:27;22.40;80.00
64705;DHT22;51131;52.298;13.686;2022-08-21T13:04:55;22.40;80.30
64705;DHT22;51131;52.298;13.686;2022-08-21T13:07:29;22.40;80.00
64705;DHT22;51131;52.298;13.686;2022-08-21T13:10:03;22.40;80.20
64705;DHT22;51131;52.298;13.686;2022-08-21T13:12:30;22.40;80.10
64705;DHT22;51131;52.298;13.686;2022-08-21T13:15:00;22.40;80.20
64705;DHT22;51131;52.298;13.686;2022-08-21T13:17:30;22.40;79.40
64705;DHT22;51131;52.298;13.686;2022-08-21T13:19:59;22.40;79.90
64705;DHT22;51131;52.298;13.686;2022-08-21T13:22:26;22.40;80.10
64705;DHT22;51131;52.298;13.686;2022-08-21T13:25:00;22.40;79.80
64705;DHT22;51131;52.298;13.686;2022-08-21T13:27:32;22.40;79.80
64705;DHT22;51131;52.298;13.686;2022-08-21T13:30:05;22.30;78.80
64705;DHT22;51131;52.298;13.686;2022-08-21T13:32:33;22.40;76.40
64705;DHT22;51131;52.298;13.686;2022-08-21T13:35:07;22.40;78.20
64705;DHT22;51131;52.298;13.686;2022-08-21T13:37:34;22.40;79.00
64705;DHT22;51131;52.298;13.686;2022-08-21T13:40:02;22.40;79.60
64705;DHT22;51131;52.298;13.686;2022-08-21T13:42:29;22.40;79.90
64705;DHT22;51131;52.298;13.686;2022-08-21T13:44:56;22.30;79.90
64705;DHT22;51131;52.298;13.686;2022-08-21T13:47:22;22.30;80.00
64705;DHT22;51131;52.298;13.686;2022-08-21T13:49:50;22.30;79.30
64705;DHT22;51131;52.298;13.686;2022-08-21T13:52:26;22.30;78.60
64705;DHT22;51131;52.298;13.686;2022-08-21T13:54:57;22.30;78.40
64705;DHT22;51131;52.298;13.686;2022-08-21T13:57:31;22.30;79.30
64705;DHT22;51131;52.298;13.686;2022-08-21T14:00:12;22.30;79.70
64705;DHT22;51131;52.298;13.686;2022-08-21T14:02:40;22.30;78.30
64705;DHT22;51131;52.298;13.686;2022-08-21T14:05:08;22.30;76.60
64705;DHT22;51131;52.298;13.686;2022-08-21T14:07:40;22.30;78.70
64705;DHT22;51131;52.298;13.686;2022-08-21T14:10:16;22.40;78.30
64705;DHT22;51131;52.298;13.686;2022-08-21T14:12:45;22.40;79.50
64705;DHT22;51131;52.298;13.686;2022-08-21T14:15:13;22.40;78.80
64705;DHT22;51131;52.298;13.686;2022-08-21T14:17:41;22.40;79.20
64705;DHT22;51131;52.298;13.686;2022-08-21T14:20:31;22.50;79.70
64705;DHT22;51131;52.298;13.686;2022-08-21T14:22:55;22.40;79.30
64705;DHT22;51131;52.298;13.686;2022-08-21T14:27:50;22.60;79.60
64705;DHT22;51131;52.298;13.686;2022-08-21T14:30:18;22.50;79.40
64705;DHT22;51131;52.298;13.686;2022-08-21T14:32:46;22.50;79.50
64705;DHT22;51131;52.298;13.686;2022-08-21T14:35:13;22.50;79.40
64705;DHT22;51131;52.298;13.686;2022-08-21T14:37:41;22.60;79.40
64705;DHT22;51131;52.298;13.686;2022-08-21T14:40:09;22.60;79.50
64705;DHT22;51131;52.298;13.686;2022-08-21T14:42:36;22.50;79.40
64705;DHT22;51131;52.298;13.686;2022-08-21T14:45:07;22.60;79.20
64705;DHT22;51131;52.298;13.686;2022-08-21T14:47:37;22.50;78.90
64705;DHT22;51131;52.298;13.686;2022-08-21T14:50:04;22.50;78.60
64705;DHT22;51131;52.298;13.686;2022-08-21T14:52:31;22.50;78.20
64705;DHT22;51131;52.298;13.686;2022-08-21T14:54:58;22.50;78.50
64705;DHT22;51131;52.298;13.686;2022-08-21T14:57:25;22.30;78.30
64705;DHT22;51131;52.298;13.686;2022-08-21T14:59:53;22.50;78.60
64705;DHT22;51131;52.298;13.686;2022-08-21T15:02:25;22.50;78.70
64705;DHT22;51131;52.298;13.686;2022-08-21T15:04:52;22.50;78.80
64705;DHT22;51131;52.298;13.686;2022-08-21T15:07:19;22.40;78.40
64705;DHT22;51131;52.298;13.686;2022-08-21T15:09:46;22.50;78.30
64705;DHT22;51131;52.298;13.686;2022-08-21T15:12:13;22.50;78.30
64705;DHT22;51131;52.298;13.686;2022-08-21T15:14:40;22.50;78.40
64705;DHT22;51131;52.298;13.686;2022-08-21T15:17:08;22.50;78.40
64705;DHT22;51131;52.298;13.686;2022-08-21T15:19:35;22.50;78.50
64705;DHT22;51131;52.298;13.686;2022-08-21T15:22:02;22.50;78.70
64705;DHT22;51131;52.298;13.686;2022-08-21T15:24:29;22.50;78.70
64705;DHT22;51131;52.298;13.686;2022-08-21T15:26:56;22.50;78.50
64705;DHT22;51131;52.298;13.686;2022-08-21T15:29:25;22.50;78.70
64705;DHT22;51131;52.298;13.686;2022-08-21T15:32:00;22.50;78.90
64705;DHT22;51131;52.298;13.686;2022-08-21T15:34:28;22.50;79.20
64705;DHT22;51131;52.298;13.686;2022-08-21T15:36:55;22.50;79.10
64705;DHT22;51131;52.298;13.686;2022-08-21T15:39:26;22.50;79.00
64705;DHT22;51131;52.298;13.686;2022-08-21T15:41:57;22.50;79.00
64705;DHT22;51131;52.298;13.686;2022-08-21T15:44:24;22.50;78.90
64705;DHT22;51131;52.298;13.686;2022-08-21T15:46:52;22.50;78.70
64705;DHT22;51131;52.298;13.686;2022-08-21T15:49:19;22.50;79.00
64705;DHT22;51131;52.298;13.686;2022-08-21T15:51:45;22.50;78.70
64705;DHT22;51131;52.298;13.686;2022-08-21T15:54:12;22.50;79.00
64705;DHT22;51131;52.298;13.686;2022-08-21T15:56:39;22.50;79.00
64705;DHT22;51131;52.298;13.686;2022-08-21T15:59:08;22.50;79.00
64705;DHT22;51131;52.298;13.686;2022-08-21T16:01:35;22.50;79.00
64705;DHT22;51131;52.298;13.686;2022-08-21T16:04:12;22.50;79.20
64705;DHT22;51131;52.298;13.686;2022-08-21T16:06:41;22.50;79.10
64705;DHT22;51131;52.298;13.686;2022-08-21T16:09:21;22.50;79.00
64705;DHT22;51131;52.298;13.686;2022-08-21T16:11:48;22.40;78.90
64705;DHT22;51131;52.298;13.686;2022-08-21T16:14:15;22.50;79.00
64705;DHT22;51131;52.298;13.686;2022-08-21T16:16:42;22.50;79.00
64705;DHT22;51131;52.298;13.686;2022-08-21T16:19:10;22.40;78.80
64705;DHT22;51131;52.298;13.686;2022-08-21T16:21:37;22.40;78.90
64705;DHT22;51131;52.298;13.686;2022-08-21T16:24:03;22.40;78.90
64705;DHT22;51131;52.298;13.686;2022-08-21T16:26:30;22.40;79.60
64705;DHT22;51131;52.298;13.686;2022-08-21T16:28:59;22.40;79.00
64705;DHT22;51131;52.298;13.686;2022-08-21T16:31:26;22.40;79.00
64705;DHT22;51131;52.298;13.686;2022-08-21T16:33:54;22.40;79.20
64705;DHT22;51131;52.298;13.686;2022-08-21T16:36:23;22.40;79.20
64705;DHT22;51131;52.298;13.686;2022-08-21T16:38:52;22.40;79.20